sensor_id;sensor_type;location;lat;lon;timestamp;pressure;altitude;pressure_sealevel;temperature;humidity
74270;BME280;62754;48.252;11.654;2023-04-23T00:02:18;95563.88;;;13.62;62.38
74270;BME280;62754;48.252;11.654;2023-04-23T00:04:49;95562.03;;;13.54;62.76
74270;BME280;62754;48.252;11.654;2023-04-23T00:07:19;95564.81;;;13.61;62.42
74270;BME280;62754;48.252;11.654;2023-04-23T00:09:49;95557.06;;;13.61;62.61
74270;BME280;62754;48.252;11.654;2023-04-23T00:12:17;95561.28;;;13.62;62.24
74270;BME280;62754;48.252;11.654;2023-04-23T00:14:46;95556.56;;;13.57;62.36
74270;BME280;62754;48.252;11.654;2023-04-23T00:17:11;95557.19;;;13.59;62.34
74270;BME280;62754;48.252;11.654;2023-04-23T00:19:37;95555.91;;;13.55;62.59
74270;BME280;62754;48.252;11.654;2023-04-23T00:22:03;95552.50;;;13.55;62.74
74270;BME280;62754;48.252;11.654;2023-04-23T00:24:28;95560.91;;;13.57;62.67
74270;BME280;62754;48.252;11.654;2023-04-23T00:26:54;95554.09;;;13.56;62.45
74270;BME280;62754;48.252;11.654;2023-04-23T00:29:22;95550.38;;;13.50;62.34
74270;BME280;62754;48.252;11.654;2023-04-23T00:31:48;95542.44;;;13.52;62.31
74270;BME280;62754;48.252;11.654;2023-04-23T00:34:19;95551.84;;;13.53;62.23
74270;BME280;62754;48.252;11.654;2023-04-23T00:36:49;95543.72;;;13.48;62.53
74270;BME280;62754;48.252;11.654;2023-04-23T00:39:15;95544.69;;;13.47;62.89
74270;BME280;62754;48.252;11.654;2023-04-23T00:41:41;95538.84;;;13.45;62.43
74270;BME280;62754;48.252;11.654;2023-04-23T00:44:09;95540.16;;;13.49;62.36
74270;BME280;62754;48.252;11.654;2023-04-23T00:46:38;95537.31;;;13.60;61.89
74270;BME280;62754;48.252;11.654;2023-04-23T00:49:06;95539.41;;;13.56;61.83
74270;BME280;62754;48.252;11.654;2023-04-23T00:51:34;95542.16;;;13.55;62.09
74270;BME280;62754;48.252;11.654;2023-04-23T00:54:03;95537.66;;;13.65;61.44
74270;BME280;62754;48.252;11.654;2023-04-23T00:56:29;95533.44;;;13.64;61.62
74270;BME280;62754;48.252;11.654;2023-04-23T00:58:57;95530.22;;;13.62;61.46
74270;BME280;62754;48.252;11.654;2023-04-23T01:01:25;95530.72;;;13.65;61.68
74270;BME280;62754;48.252;11.654;2023-04-23T01:03:53;95534.94;;;13.66;61.54
74270;BME280;62754;48.252;11.654;2023-04-23T01:06:22;95534.75;;;13.68;61.75
74270;BME280;62754;48.252;11.654;2023-04-23T01:08:50;95533.81;;;13.69;62.09
74270;BME280;62754;48.252;11.654;2023-04-23T01:11:16;95533.44;;;13.64;62.17
74270;BME280;62754;48.252;11.654;2023-04-23T01:13:42;95529.25;;;13.63;62.07
74270;BME280;62754;48.252;11.654;2023-04-23T01:16:09;95537.81;;;13.63;62.53
74270;BME280;62754;48.252;11.654;2023-04-23T01:18:35;95527.63;;;13.62;62.68
74270;BME280;62754;48.252;11.654;2023-04-23T01:21:02;95530.66;;;13.57;63.00
74270;BME280;62754;48.252;11.654;2023-04-23T01:23:28;95523.53;;;13.51;64.85
74270;BME280;62754;48.252;11.654;2023-04-23T01:25:58;95531.81;;;13.55;64.69
74270;BME280;62754;48.252;11.654;2023-04-23T01:28:23;95530.50;;;13.51;65.36
74270;BME280;62754;48.252;11.654;2023-04-23T01:30:52;95528.34;;;13.46;66.24
74270;BME280;62754;48.252;11.654;2023-04-23T01:33:18;95537.53;;;13.41;66.75
74270;BME280;62754;48.252;11.654;2023-04-23T01:35:46;95525.09;;;13.36;66.91
74270;BME280;62754;48.252;11.654;2023-04-23T01:38:13;95525.22;;;13.34;67.75
74270;BME280;62754;48.252;11.654;2023-04-23T01:40:39;95529.72;;;13.32;68.05
74270;BME280;62754;48.252;11.654;2023-04-23T01:43:05;95532.28;;;13.24;69.73
74270;BME280;62754;48.252;11.654;2023-04-23T01:45:33;95533.25;;;13.23;70.16
74270;BME280;62754;48.252;11.654;2023-04-23T01:48:01;95533.25;;;13.23;70.35
74270;BME280;62754;48.252;11.654;2023-04-23T01:50:28;95537.09;;;13.19;70.07
74270;BME280;62754;48.252;11.654;2023-04-23T01:52:54;95538.25;;;13.25;69.81
74270;BME280;62754;48.252;11.654;2023-04-23T01:55:24;95534.34;;;13.21;71.19
74270;BME280;62754;48.252;11.654;2023-04-23T01:57:50;95521.22;;;13.14;72.33
74270;BME280;62754;48.252;11.654;2023-04-23T02:00:21;95527.13;;;13.07;73.56
74270;BME280;62754;48.252;11.654;2023-04-23T02:02:46;95531.34;;;13.08;72.36
74270;BME280;62754;48.252;11.654;2023-04-23T02:05:17;95525.47;;;13.06;72.94
74270;BME280;62754;48.252;11.654;2023-04-23T02:07:44;95524.78;;;12.96;73.45
74270;BME280;62754;48.252;11.654;2023-04-23T02:10:12;95532.97;;;12.91;74.27
74270;BME280;62754;48.252;11.654;2023-04-23T02:12:38;95531.91;;;12.76;75.64
74270;BME280;62754;48.252;11.654;2023-04-23T02:15:11;95539.84;;;12.82;76.52
74270;BME280;62754;48.252;11.654;2023-04-23T02:17:39;95532.78;;;12.84;76.49
74270;BME280;62754;48.252;11.654;2023-04-23T02:20:07;95533.28;;;12.88;76.51
74270;BME280;62754;48.252;11.654;2023-04-23T02:22:35;95533.44;;;12.86;77.05
74270;BME280;62754;48.252;11.654;2023-04-23T02:25:01;95535.19;;;12.86;76.94
74270;BME280;62754;48.252;11.654;2023-04-23T02:27:31;95546.22;;;12.88;77.13
74270;BME280;62754;48.252;11.654;2023-04-23T02:30:00;95552.84;;;12.90;77.59
74270;BME280;62754;48.252;11.654;2023-04-23T02:32:28;95546.53;;;12.85;77.14
74270;BME280;62754;48.252;11.654;2023-04-23T02:34:54;95542.94;;;12.86;77.81
74270;BME280;62754;48.252;11.654;2023-04-23T02:37:19;95542.16;;;12.85;76.65
74270;BME280;62754;48.252;11.654;2023-04-23T02:39:45;95541.34;;;12.85;76.86
74270;BME280;62754;48.252;11.654;2023-04-23T02:42:12;95539.72;;;12.84;75.07
74270;BME280;62754;48.252;11.654;2023-04-23T02:44:37;95541.50;;;12.83;75.06
74270;BME280;62754;48.252;11.654;2023-04-23T02:47:03;95539.94;;;12.90;72.83
74270;BME280;62754;48.252;11.654;2023-04-23T02:49:29;95549.75;;;12.87;75.04
74270;BME280;62754;48.252;11.654;2023-04-23T02:51:55;95540.34;;;12.78;74.42
74270;BME280;62754;48.252;11.654;2023-04-23T02:54:20;95541.59;;;12.74;74.88
74270;BME280;62754;48.252;11.654;2023-04-23T02:56:46;95546.38;;;12.69;75.80
74270;BME280;62754;48.252;11.654;2023-04-23T02:59:14;95551.41;;;12.70;76.33
74270;BME280;62754;48.252;11.654;2023-04-23T03:01:42;95545.88;;;12.65;77.36
74270;BME280;62754;48.252;11.654;2023-04-23T03:04:10;95539.00;;;12.56;77.53
74270;BME280;62754;48.252;11.654;2023-04-23T03:06:39;95545.28;;;12.54;77.40
74270;BME280;62754;48.252;11.654;2023-04-23T03:09:05;95550.59;;;12.52;77.23
74270;BME280;62754;48.252;11.654;2023-04-23T03:11:33;95551.28;;;12.54;77.25
74270;BME280;62754;48.252;11.654;2023-04-23T03:14:01;95550.75;;;12.51;77.43
74270;BME280;62754;48.252;11.654;2023-04-23T03:16:28;95547.06;;;12.53;77.45
74270;BME280;62754;48.252;11.654;2023-04-23T03:18:54;95543.13;;;12.49;75.77
74270;BME280;62754;48.252;11.654;2023-04-23T03:21:20;95545.06;;;12.47;75.17
74270;BME280;62754;48.252;11.654;2023-04-23T03:23:46;95548.41;;;12.39;78.05
74270;BME280;62754;48.252;11.654;2023-04-23T03:26:14;95552.34;;;12.52;78.00
74270;BME280;62754;48.252;11.654;2023-04-23T03:28:42;95546.69;;;12.48;77.68
74270;BME280;62754;48.252;11.654;2023-04-23T03:31:08;95550.38;;;12.46;77.50
74270;BME280;62754;48.252;11.654;2023-04-23T03:33:36;95545.13;;;12.37;77.72
74270;BME280;62754;48.252;11.654;2023-04-23T03:36:04;95546.25;;;12.35;78.65
74270;BME280;62754;48.252;11.654;2023-04-23T03:38:33;95554.34;;;12.40;79.95
74270;BME280;62754;48.252;11.654;2023-04-23T03:40:58;95552.22;;;12.35;79.88
74270;BME280;62754;48.252;11.654;2023-04-23T03:43:24;95550.59;;;12.34;79.33
74270;BME280;62754;48.252;11.654;2023-04-23T03:45:50;95552.50;;;12.32;79.25
74270;BME280;62754;48.252;11.654;2023-04-23T03:48:18;95561.22;;;12.31;78.93
74270;BME280;62754;48.252;11.654;2023-04-23T03:50:44;95560.41;;;12.31;78.82
74270;BME280;62754;48.252;11.654;2023-04-23T03:53:14;95557.53;;;12.34;78.50
74270;BME280;62754;48.252;11.654;2023-04-23T03:55:40;95563.81;;;12.31;78.77
74270;BME280;62754;48.252;11.654;2023-04-23T03:58:06;95566.41;;;12.31;78.39
74270;BME280;62754;48.252;11.654;2023-04-23T04:00:36;95567.78;;;12.26;77.88
74270;BME280;62754;48.252;11.654;2023-04-23T04:03:02;95568.88;;;12.23;78.38
74270;BME280;62754;48.252;11.654;2023-04-23T04:05:28;95571.25;;;12.34;78.21
74270;BME280;62754;48.252;11.654;2023-04-23T04:07:54;95578.84;;;12.36;77.14
74270;BME280;62754;48.252;11.654;2023-04-23T04:10:22;95579.41;;;12.39;77.21
74270;BME280;62754;48.252;11.654;2023-04-23T04:12:48;95585.50;;;12.38;77.15
74270;BME280;62754;48.252;11.654;2023-04-23T04:15:23;95590.44;;;12.32;77.23
74270;BME280;62754;48.252;11.654;2023-04-23T04:17:58;95593.38;;;12.19;78.33
74270;BME280;62754;48.252;11.654;2023-04-23T04:20:31;95595.66;;;12.22;77.97
74270;BME280;62754;48.252;11.654;2023-04-23T04:22:57;95602.47;;;12.23;77.92
74270;BME280;62754;48.252;11.654;2023-04-23T04:25:25;95596.41;;;12.15;78.61
74270;BME280;62754;48.252;11.654;2023-04-23T04:27:53;95603.03;;;12.17;78.61
74270;BME280;62754;48.252;11.654;2023-04-23T04:30:22;95599.72;;;12.25;78.77
74270;BME280;62754;48.252;11.654;2023-04-23T04:32:53;95592.09;;;12.06;80.04
74270;BME280;62754;48.252;11.654;2023-04-23T04:35:21;95606.19;;;12.11;80.10
74270;BME280;62754;48.252;11.654;2023-04-23T04:37:50;95605.88;;;11.97;81.26
74270;BME280;62754;48.252;11.654;2023-04-23T04:40:19;95603.38;;;12.05;81.23
74270;BME280;62754;48.252;11.654;2023-04-23T04:42:49;95613.34;;;11.90;82.45
74270;BME280;62754;48.252;11.654;2023-04-23T04:45:15;95611.34;;;11.84;83.37
74270;BME280;62754;48.252;11.654;2023-04-23T04:47:40;95607.44;;;11.80;83.38
74270;BME280;62754;48.252;11.654;2023-04-23T04:50:09;95610.59;;;11.74;84.33
74270;BME280;62754;48.252;11.654;2023-04-23T04:52:35;95607.84;;;11.75;84.19
74270;BME280;62754;48.252;11.654;2023-04-23T04:55:00;95615.47;;;11.77;84.30
74270;BME280;62754;48.252;11.654;2023-04-23T04:57:28;95616.94;;;11.70;84.81
74270;BME280;62754;48.252;11.654;2023-04-23T04:59:56;95612.88;;;11.67;83.98
74270;BME280;62754;48.252;11.654;2023-04-23T05:02:24;95621.00;;;11.82;84.55
74270;BME280;62754;48.252;11.654;2023-04-23T05:04:50;95612.97;;;11.85;84.10
74270;BME280;62754;48.252;11.654;2023-04-23T05:07:16;95629.72;;;11.81;84.00
74270;BME280;62754;48.252;11.654;2023-04-23T05:09:41;95627.50;;;11.86;83.52
74270;BME280;62754;48.252;11.654;2023-04-23T05:12:07;95623.44;;;11.83;84.08
74270;BME280;62754;48.252;11.654;2023-04-23T05:14:33;95626.97;;;11.82;83.66
74270;BME280;62754;48.252;11.654;2023-04-23T05:16:59;95639.44;;;11.87;83.76
74270;BME280;62754;48.252;11.654;2023-04-23T05:19:24;95632.09;;;11.92;83.60
74270;BME280;62754;48.252;11.654;2023-04-23T05:21:50;95645.44;;;11.87;83.34
74270;BME280;62754;48.252;11.654;2023-04-23T05:24:16;95644.91;;;11.84;84.17
74270;BME280;62754;48.252;11.654;2023-04-23T05:26:44;95648.97;;;11.86;84.03
74270;BME280;62754;48.252;11.654;2023-04-23T05:29:14;95651.00;;;11.92;83.48
74270;BME280;62754;48.252;11.654;2023-04-23T05:31:42;95654.28;;;11.85;83.53
74270;BME280;62754;48.252;11.654;2023-04-23T05:34:08;95664.50;;;11.77;84.51
74270;BME280;62754;48.252;11.654;2023-04-23T05:36:39;95648.19;;;11.76;84.31
74270;BME280;62754;48.252;11.654;2023-04-23T05:39:04;95656.56;;;11.88;84.79
74270;BME280;62754;48.252;11.654;2023-04-23T05:41:32;95656.59;;;11.78;84.08
74270;BME280;62754;48.252;11.654;2023-04-23T05:43:58;95665.44;;;11.76;84.59
74270;BME280;62754;48.252;11.654;2023-04-23T05:46:24;95663.41;;;11.70;85.12
74270;BME280;62754;48.252;11.654;2023-04-23T05:48:52;95665.00;;;11.71;84.92
74270;BME280;62754;48.252;11.654;2023-04-23T05:51:18;95667.72;;;11.79;85.78
74270;BME280;62754;48.252;11.654;2023-04-23T05:53:49;95675.09;;;11.55;86.07
74270;BME280;62754;48.252;11.654;2023-04-23T05:56:15;95671.16;;;11.60;86.68
74270;BME280;62754;48.252;11.654;2023-04-23T05:58:43;95678.06;;;11.60;86.92
74270;BME280;62754;48.252;11.654;2023-04-23T06:01:08;95681.22;;;11.54;88.19
74270;BME280;62754;48.252;11.654;2023-04-23T06:03:34;95682.97;;;11.43;88.29
74270;BME280;62754;48.252;11.654;2023-04-23T06:06:00;95673.84;;;11.59;87.57
74270;BME280;62754;48.252;11.654;2023-04-23T06:08:26;95680.38;;;11.63;87.79
74270;BME280;62754;48.252;11.654;2023-04-23T06:10:56;95670.59;;;11.76;87.50
74270;BME280;62754;48.252;11.654;2023-04-23T06:13:24;95677.53;;;11.66;87.50
74270;BME280;62754;48.252;11.654;2023-04-23T06:15:52;95684.16;;;11.78;87.85
74270;BME280;62754;48.252;11.654;2023-04-23T06:18:18;95681.06;;;11.74;87.81
74270;BME280;62754;48.252;11.654;2023-04-23T06:20:46;95677.00;;;11.72;88.14
74270;BME280;62754;48.252;11.654;2023-04-23T06:23:14;95673.19;;;11.76;88.30
74270;BME280;62754;48.252;11.654;2023-04-23T06:25:39;95679.66;;;11.89;87.81
74270;BME280;62754;48.252;11.654;2023-04-23T06:28:07;95682.56;;;11.77;87.92
74270;BME280;62754;48.252;11.654;2023-04-23T06:30:35;95680.81;;;11.58;88.97
74270;BME280;62754;48.252;11.654;2023-04-23T06:33:03;95682.56;;;11.48;89.13
74270;BME280;62754;48.252;11.654;2023-04-23T06:35:29;95679.47;;;11.54;89.37
74270;BME280;62754;48.252;11.654;2023-04-23T06:37:55;95681.63;;;11.49;90.12
74270;BME280;62754;48.252;11.654;2023-04-23T06:40:23;95684.88;;;11.61;90.28
74270;BME280;62754;48.252;11.654;2023-04-23T06:42:48;95684.31;;;11.67;89.47
74270;BME280;62754;48.252;11.654;2023-04-23T06:45:17;95685.81;;;11.69;90.08
74270;BME280;62754;48.252;11.654;2023-04-23T06:47:42;95687.03;;;11.65;89.64
74270;BME280;62754;48.252;11.654;2023-04-23T06:50:13;95687.44;;;11.51;89.66
74270;BME280;62754;48.252;11.654;2023-04-23T06:52:41;95692.22;;;11.46;90.22
74270;BME280;62754;48.252;11.654;2023-04-23T06:55:07;95685.44;;;11.45;90.24
74270;BME280;62754;48.252;11.654;2023-04-23T06:57:33;95686.41;;;11.34;91.08
74270;BME280;62754;48.252;11.654;2023-04-23T06:59:59;95683.69;;;11.45;90.70
74270;BME280;62754;48.252;11.654;2023-04-23T07:02:27;95683.81;;;11.34;91.03
74270;BME280;62754;48.252;11.654;2023-04-23T07:04:52;95684.34;;;11.47;91.42
74270;BME280;62754;48.252;11.654;2023-04-23T07:07:18;95688.81;;;11.55;90.89
74270;BME280;62754;48.252;11.654;2023-04-23T07:09:47;95677.28;;;11.50;90.96
74270;BME280;62754;48.252;11.654;2023-04-23T07:12:15;95676.72;;;11.56;90.34
74270;BME280;62754;48.252;11.654;2023-04-23T07:14:42;95676.06;;;11.54;91.31
74270;BME280;62754;48.252;11.654;2023-04-23T07:17:08;95680.25;;;11.64;91.46
74270;BME280;62754;48.252;11.654;2023-04-23T07:19:33;95678.22;;;11.77;89.89
74270;BME280;62754;48.252;11.654;2023-04-23T07:21:59;95678.63;;;11.73;89.90
74270;BME280;62754;48.252;11.654;2023-04-23T07:24:25;95683.47;;;11.66;90.88
74270;BME280;62754;48.252;11.654;2023-04-23T07:26:53;95675.47;;;11.79;89.99
74270;BME280;62754;48.252;11.654;2023-04-23T07:29:19;95666.91;;;11.88;90.26
74270;BME280;62754;48.252;11.654;2023-04-23T07:31:44;95668.78;;;11.86;89.43
74270;BME280;62754;48.252;11.654;2023-04-23T07:34:11;95678.06;;;11.79;89.82
74270;BME280;62754;48.252;11.654;2023-04-23T07:36:39;95669.31;;;11.89;89.97
74270;BME280;62754;48.252;11.654;2023-04-23T07:39:07;95674.41;;;11.81;90.27
74270;BME280;62754;48.252;11.654;2023-04-23T07:41:33;95676.13;;;11.90;89.92
74270;BME280;62754;48.252;11.654;2023-04-23T07:44:01;95673.53;;;11.90;89.66
74270;BME280;62754;48.252;11.654;2023-04-23T07:46:31;95684.78;;;11.99;89.27
74270;BME280;62754;48.252;11.654;2023-04-23T07:48:59;95674.34;;;11.91;88.35
74270;BME280;62754;48.252;11.654;2023-04-23T07:51:27;95673.44;;;11.82;88.19
74270;BME280;62754;48.252;11.654;2023-04-23T07:53:53;95676.94;;;11.91;87.16
74270;BME280;62754;48.252;11.654;2023-04-23T07:56:19;95677.06;;;11.99;87.81
74270;BME280;62754;48.252;11.654;2023-04-23T07:58:45;95683.69;;;12.02;88.02
74270;BME280;62754;48.252;11.654;2023-04-23T08:01:15;95680.75;;;11.97;87.70
74270;BME280;62754;48.252;11.654;2023-04-23T08:03:43;95682.50;;;11.96;88.57
74270;BME280;62754;48.252;11.654;2023-04-23T08:06:12;95690.78;;;12.00;88.87
74270;BME280;62754;48.252;11.654;2023-04-23T08:08:37;95682.00;;;11.83;89.60
74270;BME280;62754;48.252;11.654;2023-04-23T08:11:07;95685.31;;;12.03;89.23
74270;BME280;62754;48.252;11.654;2023-04-23T08:13:33;95689.50;;;12.13;88.87
74270;BME280;62754;48.252;11.654;2023-04-23T08:15:58;95684.84;;;12.17;88.21
74270;BME280;62754;48.252;11.654;2023-04-23T08:18:24;95675.22;;;12.09;87.85
74270;BME280;62754;48.252;11.654;2023-04-23T08:20:53;95674.06;;;11.94;89.51
74270;BME280;62754;48.252;11.654;2023-04-23T08:23:19;95672.00;;;12.07;88.90
74270;BME280;62754;48.252;11.654;2023-04-23T08:25:47;95673.19;;;12.13;89.07
74270;BME280;62754;48.252;11.654;2023-04-23T08:28:14;95668.47;;;12.08;89.55
74270;BME280;62754;48.252;11.654;2023-04-23T08:30:43;95673.22;;;12.03;90.16
74270;BME280;62754;48.252;11.654;2023-04-23T08:33:11;95673.88;;;12.15;88.57
74270;BME280;62754;48.252;11.654;2023-04-23T08:35:41;95670.81;;;12.29;88.70
74270;BME280;62754;48.252;11.654;2023-04-23T08:38:07;95664.50;;;12.41;87.48
74270;BME280;62754;48.252;11.654;2023-04-23T08:40:35;95669.84;;;12.30;88.30
74270;BME280;62754;48.252;11.654;2023-04-23T08:43:02;95663.56;;;12.32;87.26
74270;BME280;62754;48.252;11.654;2023-04-23T08:45:32;95661.56;;;12.54;86.53
74270;BME280;62754;48.252;11.654;2023-04-23T08:47:59;95652.81;;;12.82;84.68
74270;BME280;62754;48.252;11.654;2023-04-23T08:50:27;95650.72;;;13.13;82.96
74270;BME280;62754;48.252;11.654;2023-04-23T08:52:57;95650.50;;;13.50;82.77
74270;BME280;62754;48.252;11.654;2023-04-23T08:55:23;95650.63;;;14.00;83.31
74270;BME280;62754;48.252;11.654;2023-04-23T08:57:52;95659.59;;;14.13;82.35
74270;BME280;62754;48.252;11.654;2023-04-23T09:00:19;95660.94;;;13.92;80.77
74270;BME280;62754;48.252;11.654;2023-04-23T09:02:47;95657.50;;;13.83;81.24
74270;BME280;62754;48.252;11.654;2023-04-23T09:05:13;95651.31;;;13.76;81.81
74270;BME280;62754;48.252;11.654;2023-04-23T09:07:42;95648.03;;;13.66;78.41
74270;BME280;62754;48.252;11.654;2023-04-23T09:10:12;95653.66;;;13.61;79.15
74270;BME280;62754;48.252;11.654;2023-04-23T09:12:40;95653.00;;;13.85;78.62
74270;BME280;62754;48.252;11.654;2023-04-23T09:15:09;95649.19;;;13.97;76.09
74270;BME280;62754;48.252;11.654;2023-04-23T09:17:40;95649.06;;;14.41;78.26
74270;BME280;62754;48.252;11.654;2023-04-23T09:20:10;95652.53;;;14.23;76.44
74270;BME280;62754;48.252;11.654;2023-04-23T09:25:11;95641.81;;;14.52;76.67
74270;BME280;62754;48.252;11.654;2023-04-23T09:27:40;95629.81;;;14.51;76.57
74270;BME280;62754;48.252;11.654;2023-04-23T09:30:07;95621.50;;;15.06;72.94
74270;BME280;62754;48.252;11.654;2023-04-23T09:32:34;95623.09;;;15.31;72.42
74270;BME280;62754;48.252;11.654;2023-04-23T09:35:09;95626.34;;;15.65;71.49
74270;BME280;62754;48.252;11.654;2023-04-23T09:37:40;95627.28;;;15.72;71.95
74270;BME280;62754;48.252;11.654;2023-04-23T09:40:12;95625.50;;;15.49;69.91
74270;BME280;62754;48.252;11.654;2023-04-23T09:42:40;95622.63;;;15.52;70.24
74270;BME280;62754;48.252;11.654;2023-04-23T09:45:14;95619.56;;;16.03;69.13
74270;BME280;62754;48.252;11.654;2023-04-23T09:47:47;95619.16;;;15.84;66.48
74270;BME280;62754;48.252;11.654;2023-04-23T09:50:13;95612.09;;;16.08;67.83
74270;BME280;62754;48.252;11.654;2023-04-23T09:52:40;95599.31;;;16.30;67.02
74270;BME280;62754;48.252;11.654;2023-04-23T09:55:11;95605.44;;;16.45;69.05
74270;BME280;62754;48.252;11.654;2023-04-23T09:57:42;95603.13;;;16.50;67.35
74270;BME280;62754;48.252;11.654;2023-04-23T10:00:16;95602.22;;;16.35;66.13
74270;BME280;62754;48.252;11.654;2023-04-23T10:02:51;95601.09;;;16.37;65.68
74270;BME280;62754;48.252;11.654;2023-04-23T10:05:20;95594.75;;;16.40;65.34
74270;BME280;62754;48.252;11.654;2023-04-23T10:07:49;95598.09;;;16.17;64.92
74270;BME280;62754;48.252;11.654;2023-04-23T10:10:17;95606.19;;;16.23;67.18
74270;BME280;62754;48.252;11.654;2023-04-23T10:12:46;95601.66;;;16.25;65.34
74270;BME280;62754;48.252;11.654;2023-04-23T10:15:13;95598.59;;;16.52;64.28
74270;BME280;62754;48.252;11.654;2023-04-23T10:17:39;95590.16;;;16.11;66.03
74270;BME280;62754;48.252;11.654;2023-04-23T10:20:09;95595.16;;;16.20;65.88
74270;BME280;62754;48.252;11.654;2023-04-23T10:22:37;95590.63;;;16.45;64.93
74270;BME280;62754;48.252;11.654;2023-04-23T10:25:04;95590.66;;;16.06;65.83
74270;BME280;62754;48.252;11.654;2023-04-23T10:27:36;95585.75;;;16.11;64.13
74270;BME280;62754;48.252;11.654;2023-04-23T10:30:04;95577.16;;;16.11;66.16
74270;BME280;62754;48.252;11.654;2023-04-23T10:32:33;95576.72;;;15.99;65.41
74270;BME280;62754;48.252;11.654;2023-04-23T10:34:59;95585.31;;;16.00;67.51
74270;BME280;62754;48.252;11.654;2023-04-23T10:37:26;95582.03;;;15.67;66.02
74270;BME280;62754;48.252;11.654;2023-04-23T10:40:00;95575.50;;;15.79;65.25
74270;BME280;62754;48.252;11.654;2023-04-23T10:42:31;95578.06;;;15.87;65.19
74270;BME280;62754;48.252;11.654;2023-04-23T10:44:57;95577.78;;;15.82;67.05
74270;BME280;62754;48.252;11.654;2023-04-23T10:47:25;95573.69;;;15.80;64.77
74270;BME280;62754;48.252;11.654;2023-04-23T10:49:51;95577.28;;;15.87;64.36
74270;BME280;62754;48.252;11.654;2023-04-23T10:52:19;95574.06;;;16.15;63.00
74270;BME280;62754;48.252;11.654;2023-04-23T10:54:55;95558.22;;;16.02;64.30
74270;BME280;62754;48.252;11.654;2023-04-23T10:57:24;95562.72;;;16.39;65.15
74270;BME280;62754;48.252;11.654;2023-04-23T10:59:57;95555.03;;;16.46;64.93
74270;BME280;62754;48.252;11.654;2023-04-23T11:02:42;95558.03;;;16.35;63.33
74270;BME280;62754;48.252;11.654;2023-04-23T11:05:10;95555.34;;;16.51;61.32
74270;BME280;62754;48.252;11.654;2023-04-23T11:07:38;95547.53;;;16.59;62.23
74270;BME280;62754;48.252;11.654;2023-04-23T11:10:11;95554.00;;;16.63;62.54
74270;BME280;62754;48.252;11.654;2023-04-23T11:12:38;95536.59;;;17.24;59.73
74270;BME280;62754;48.252;11.654;2023-04-23T11:15:17;95535.47;;;17.55;60.40
74270;BME280;62754;48.252;11.654;2023-04-23T11:20:21;95526.50;;;19.23;56.24
74270;BME280;62754;48.252;11.654;2023-04-23T11:22:53;95527.06;;;20.15;55.08
74270;BME280;62754;48.252;11.654;2023-04-23T11:25:24;95519.84;;;21.10;49.16
74270;BME280;62754;48.252;11.654;2023-04-23T11:27:54;95520.78;;;21.75;49.46
74270;BME280;62754;48.252;11.654;2023-04-23T11:30:24;95513.16;;;21.73;47.81
74270;BME280;62754;48.252;11.654;2023-04-23T11:32:53;95515.31;;;21.83;45.29
74270;BME280;62754;48.252;11.654;2023-04-23T11:35:20;95506.47;;;21.97;46.96
74270;BME280;62754;48.252;11.654;2023-04-23T11:37:49;95508.72;;;21.61;46.91
74270;BME280;62754;48.252;11.654;2023-04-23T11:40:18;95508.16;;;22.61;45.69
74270;BME280;62754;48.252;11.654;2023-04-23T11:42:48;95501.84;;;23.00;45.76
74270;BME280;62754;48.252;11.654;2023-04-23T11:45:14;95499.72;;;23.15;45.61
74270;BME280;62754;48.252;11.654;2023-04-23T11:47:43;95497.41;;;24.41;42.04
74270;BME280;62754;48.252;11.654;2023-04-23T11:50:09;95499.78;;;21.95;46.43
74270;BME280;62754;48.252;11.654;2023-04-23T11:52:35;95496.03;;;20.66;49.38
74270;BME280;62754;48.252;11.654;2023-04-23T11:55:02;95497.00;;;19.91;51.53
74270;BME280;62754;48.252;11.654;2023-04-23T11:57:29;95491.59;;;19.58;51.87
74270;BME280;62754;48.252;11.654;2023-04-23T11:59:54;95483.81;;;19.71;51.71
74270;BME280;62754;48.252;11.654;2023-04-23T12:02:22;95465.00;;;19.20;53.88
74270;BME280;62754;48.252;11.654;2023-04-23T12:04:48;95470.16;;;19.07;49.90
74270;BME280;62754;48.252;11.654;2023-04-23T12:07:29;95471.59;;;18.88;51.97
74270;BME280;62754;48.252;11.654;2023-04-23T12:09:57;95466.44;;;18.31;54.61
74270;BME280;62754;48.252;11.654;2023-04-23T12:12:33;95464.13;;;18.43;55.62
74270;BME280;62754;48.252;11.654;2023-04-23T12:15:07;95465.59;;;18.67;55.83
74270;BME280;62754;48.252;11.654;2023-04-23T12:17:35;95446.88;;;18.84;55.36
74270;BME280;62754;48.252;11.654;2023-04-23T12:20:14;95438.72;;;18.94;54.37
74270;BME280;62754;48.252;11.654;2023-04-23T12:22:43;95440.25;;;18.88;52.63
74270;BME280;62754;48.252;11.654;2023-04-23T12:25:09;95444.19;;;18.99;49.64
74270;BME280;62754;48.252;11.654;2023-04-23T12:27:43;95432.97;;;20.41;46.38
74270;BME280;62754;48.252;11.654;2023-04-23T12:30:12;95429.34;;;19.75;46.21
74270;BME280;62754;48.252;11.654;2023-04-23T12:32:40;95438.63;;;20.64;44.80
74270;BME280;62754;48.252;11.654;2023-04-23T12:35:05;95434.69;;;22.23;40.84
74270;BME280;62754;48.252;11.654;2023-04-23T12:37:36;95430.81;;;23.13;39.38
74270;BME280;62754;48.252;11.654;2023-04-23T12:40:03;95425.59;;;23.06;40.09
74270;BME280;62754;48.252;11.654;2023-04-23T12:42:31;95423.34;;;21.78;41.71
74270;BME280;62754;48.252;11.654;2023-04-23T12:45:04;95419.78;;;21.66;39.99
74270;BME280;62754;48.252;11.654;2023-04-23T12:47:32;95408.03;;;23.98;35.52
74270;BME280;62754;48.252;11.654;2023-04-23T12:49:58;95403.91;;;24.61;37.25
74270;BME280;62754;48.252;11.654;2023-04-23T12:52:31;95391.81;;;25.30;36.33
74270;BME280;62754;48.252;11.654;2023-04-23T12:54:57;95400.31;;;25.55;35.33
74270;BME280;62754;48.252;11.654;2023-04-23T12:57:22;95391.78;;;25.65;35.88
74270;BME280;62754;48.252;11.654;2023-04-23T12:59:48;95386.88;;;25.34;35.13